Flight Track Log - Related Links

Times and Time Zones

All times are in EDT time to prevent confusion due to time zone crossing. See the DAL2352 flight status page for this flight to view local times or setup timezone preferences in your user account.


Time Position Orientation Groundspeed Altitude Reporting Facility
EDT Latitude Longitude Course Direction KTS MPH feet Rate Location/Type
Sun 06:35:20 AM 42.7736 -73.8064 180° South 176 203 1,300  Level Boston Center
Sun 06:35:56 AM 42.8108 -73.8183 347° North 218 251 2,000 1,979 Climbing Boston Center
Sun 06:36:57 AM 42.8539 -73.8900 309° West 264 304 4,500 2,718 Climbing Boston Center
Sun 06:37:53 AM 42.8967 -73.9619 309° West 280 322 7,300 2,741 Climbing Boston Center
Sun 06:38:00 AM 42.4257 -74.2532 198° South  Level Estimated
Sun 06:38:53 AM 42.9039 -74.0472 277° West 258 297 9,800  Level Boston Center
Sun 06:39:00 AM 42.3445 -74.3652 180° South  Level Estimated
Sun 06:39:53 AM 42.9000 -74.1689 268° West 282 325 11,000  Level Boston Center
Sun 06:40:00 AM 42.2633 -74.4770 180° South  Level Estimated
Sun 06:40:53 AM 42.8961 -74.2881 267° West 334 384 12,800  Level Boston Center
Sun 06:41:53 AM 42.8317 -74.3964 231° Southwest 342 394 16,000 2,500 Climbing Boston Center
Sun 06:42:53 AM 42.7406 -74.3681 167° South 311 358 17,800 1,400 Climbing Boston Center
Sun 06:43:53 AM 42.6228 -74.2911 154° Southeast 372 428 18,800 1,045 Climbing Boston Center
Sun 06:45:05 AM 42.5217 -74.2289 156° South 423 487 20,100 1,455 Climbing Boston Center
Sun 06:46:05 AM 42.3814 -74.1350 154° Southeast 450 518 22,000 1,600 Climbing Boston Center
Sun 06:47:05 AM 42.2617 -74.0589 155° Southeast 466 536 23,300 1,400 Climbing Boston Center
Sun 06:48:05 AM 42.1328 -74.0442 175° South 465 535 24,800 1,500 Climbing Boston Center
Sun 06:49:05 AM 42.0014 -74.0519 183° South 465 535 26,300 1,450 Climbing Boston Center
Sun 06:50:05 AM 41.8739 -74.0600 183° South 465 535 27,700 1,317 Climbing Boston Center
Sun 06:52:30 AM 41.5756 -74.0767 182° South 459 528 30,800 1,099 Climbing New York Center
Sun 06:53:27 AM 41.4750 -74.1686 214° Southwest 418 481 31,400 615 Climbing New York Center
Sun 06:54:27 AM 41.3803 -74.2769 221° Southwest 432 497 32,000 300 Climbing New York Center
Sun 06:55:27 AM 41.2856 -74.3797 219° Southwest 444 511 32,000  Level New York Center
Sun 06:56:28 AM 41.1928 -74.4822 220° Southwest 449 517 32,000  Level New York Center
Sun 06:57:27 AM 41.1000 -74.5844 220° Southwest 449 517 32,000  Level New York Center
Sun 06:58:27 AM 41.0050 -74.6892 220° Southwest 449 517 32,000  Level New York Center
Sun 06:59:27 AM 40.9097 -74.7933 220° Southwest 449 517 32,000  Level New York Center
Sun 07:00:27 AM 40.8186 -74.9006 222° Southwest 449 517 32,000  Level New York Center
Sun 07:01:28 AM 40.7253 -75.0017 219° Southwest 449 517 32,000  Level New York Center
Sun 07:02:28 AM 40.6319 -75.1108 222° Southwest 449 517 32,000  Level New York Center
Sun 07:03:29 AM 40.5361 -75.2167 220° Southwest 449 517 32,000  Level New York Center
Sun 07:04:29 AM 40.4403 -75.3250 221° Southwest 449 517 32,000  Level New York Center
Sun 07:05:27 AM 40.3467 -75.4306 221° Southwest 449 517 32,000  Level New York Center
Sun 07:06:30 AM 40.2508 -75.5356 220° Southwest 449 517 32,000  Level New York Center
Sun 07:07:27 AM 40.1769 -75.6608 232° Southwest 444 511 32,000  Level New York Center
Sun 07:08:27 AM 40.1086 -75.7972 237° Southwest 444 511 32,000  Level New York Center
Sun 07:09:29 AM 40.0339 -75.9303 234° Southwest 449 517 32,000  Level New York Center
Sun 07:10:27 AM 39.9575 -76.0544 231° Southwest 449 517 32,000  Level New York Center
Sun 07:11:28 AM 39.8811 -76.1758 231° Southwest 449 517 32,000  Level New York Center
Sun 07:12:30 AM 39.7983 -76.3019 230° Southwest 449 517 32,000  Level New York Center
Sun 07:13:28 AM 39.7172 -76.4278 230° Southwest 459 528 32,000  Level New York Center
Sun 07:14:49 AM 39.6158 -76.5775 229° Southwest 463 533 32,000  Level Washington Center
Sun 07:15:50 AM 39.5336 -76.7000 229° Southwest 458 527 32,000  Level Washington Center
Sun 07:16:48 AM 39.4553 -76.8225 230° Southwest 453 521 32,000  Level Washington Center
Sun 07:17:49 AM 39.3769 -76.9419 230° Southwest 453 521 32,000  Level Washington Center
Sun 07:18:48 AM 39.2983 -77.0694 231° Southwest 453 521 32,000  Level Washington Center
Sun 07:19:50 AM 39.2197 -77.1883 230° Southwest 453 521 32,000  Level Washington Center
Sun 07:20:48 AM 39.1408 -77.3069 229° Southwest 447 514 32,000  Level Washington Center
Sun 07:21:49 AM 39.0578 -77.4253 228° Southwest 447 514 32,000  Level Washington Center
Sun 07:22:48 AM 38.9769 -77.5408 228° Southwest 447 514 32,000  Level Washington Center
Sun 07:23:49 AM 38.8892 -77.6719 229° Southwest 453 521 32,000  Level Washington Center
Sun 07:24:48 AM 38.8036 -77.7972 229° Southwest 453 521 32,000  Level Washington Center
Sun 07:25:49 AM 38.7242 -77.9172 230° Southwest 460 529 32,000  Level Washington Center
Sun 07:26:48 AM 38.6425 -78.0344 228° Southwest 449 517 32,000  Level Washington Center
Sun 07:27:49 AM 38.5608 -78.1539 229° Southwest 449 517 32,000  Level Washington Center
Sun 07:28:50 AM 38.4811 -78.2706 229° Southwest 454 522 32,000  Level Washington Center
Sun 07:29:50 AM 38.4014 -78.3867 229° Southwest 454 522 32,000  Level Washington Center
Sun 07:30:48 AM 38.3194 -78.5028 228° Southwest 454 522 32,000  Level Washington Center
Sun 07:31:48 AM 38.2542 -78.6086 232° Southwest 448 516 32,000  Level Washington Center
Sun 07:32:47 AM 38.1633 -78.7372 228° Southwest 441 507 32,000  Level Washington Center
Sun 07:33:48 AM 38.0831 -78.8525 229° Southwest 441 507 32,000  Level Washington Center
Sun 07:34:50 AM 38.0006 -78.9700 228° Southwest 446 513 32,000  Level Washington Center
Sun 07:35:47 AM 37.9267 -79.0747 228° Southwest 451 519 32,000  Level Washington Center
Sun 07:36:48 AM 37.8461 -79.1894 228° Southwest 451 519 32,000  Level Washington Center
Sun 07:37:48 AM 37.7633 -79.3036 227° Southwest 451 519 32,000  Level Washington Center
Sun 07:38:49 AM 37.6697 -79.4303 227° Southwest 451 519 32,000  Level Washington Center
Sun 07:39:49 AM 37.5953 -79.5339 228° Southwest 451 519 32,000  Level Washington Center
Sun 07:40:50 AM 37.5036 -79.6575 227° Southwest 451 519 32,000  Level Washington Center
Sun 07:41:49 AM 37.4269 -79.7631 228° Southwest 451 519 32,000  Level Washington Center
Sun 07:42:49 AM 37.3458 -79.8764 228° Southwest 454 522 32,000  Level Washington Center
Sun 07:43:50 AM 37.2558 -79.9992 227° Southwest 449 517 32,000  Level Washington Center
Sun 07:44:50 AM 37.1744 -80.1092 227° Southwest 444 511 32,000  Level Washington Center
Sun 07:45:30 AM 37.1236 -80.1758 226° Southwest 439 505 32,000  Level Atlanta Center
Sun 07:46:30 AM 37.0414 -80.2864 227° Southwest 439 505 32,000  Level Atlanta Center
Sun 07:47:30 AM 36.9533 -80.4025 227° Southwest 433 498 32,000  Level Atlanta Center
Sun 07:48:30 AM 36.8708 -80.5100 226° Southwest 428 493 32,000  Level Atlanta Center
Sun 07:49:30 AM 36.7886 -80.6200 227° Southwest 434 499 32,000  Level Atlanta Center
Sun 07:50:30 AM 36.7122 -80.7267 228° Southwest 429 494 32,000  Level Atlanta Center
Sun 07:51:30 AM 36.6294 -80.8336 226° Southwest 429 494 32,000  Level Atlanta Center
Sun 07:52:30 AM 36.5489 -80.9403 227° Southwest 434 499 32,000  Level Atlanta Center
Sun 07:53:30 AM 36.4661 -81.0494 227° Southwest 429 494 32,000  Level Atlanta Center
Sun 07:54:30 AM 36.3872 -81.1528 227° Southwest 429 494 32,000  Level Atlanta Center
Sun 07:55:30 AM 36.3042 -81.2614 227° Southwest 435 501 32,000  Level Atlanta Center
Sun 07:56:30 AM 36.2231 -81.3672 226° Southwest 435 501 32,000  Level Atlanta Center
Sun 07:57:30 AM 36.1442 -81.4728 227° Southwest 428 493 32,000  Level Atlanta Center
Sun 07:58:30 AM 36.0608 -81.5781 226° Southwest 435 501 32,000  Level Atlanta Center
Sun 07:59:30 AM 35.9814 -81.6831 227° Southwest 430 495 32,000  Level Atlanta Center
Sun 08:00:30 AM 35.9000 -81.7856 226° Southwest 430 495 32,000  Level Atlanta Center
Sun 08:01:30 AM 35.8183 -81.8903 226° Southwest 430 495 32,000  Level Atlanta Center
Sun 08:02:30 AM 35.7428 -81.9817 224° Southwest 430 495 32,000  Level Atlanta Center
Sun 08:03:30 AM 35.6653 -82.0883 228° Southwest 425 489 32,000  Level Atlanta Center
Sun 08:04:30 AM 35.5833 -82.1900 225° Southwest 430 495 32,000  Level Atlanta Center
Sun 08:05:30 AM 35.5014 -82.2939 226° Southwest 430 495 32,000  Level Atlanta Center
Sun 08:06:30 AM 35.4214 -82.3950 226° Southwest 430 495 32,000 -500 Level Atlanta Center
Sun 08:07:30 AM 35.3392 -82.4983 226° Southwest 425 489 31,000 -1,350 Descending Atlanta Center
Sun 08:08:30 AM 35.2592 -82.5967 225° Southwest 425 489 29,300 -1,500 Descending Atlanta Center
Sun 08:09:30 AM 35.1769 -82.6972 225° Southwest 425 489 28,000 -800 Descending Atlanta Center
Sun 08:10:30 AM 35.0944 -82.8050 227° Southwest 430 495 27,700 -750 Descending Atlanta Center
Sun 08:11:30 AM 35.0119 -82.9053 225° Southwest 430 495 26,500 -1,050 Descending Atlanta Center
Sun 08:12:30 AM 34.9294 -83.0078 226° Southwest 430 495 25,600 -900 Descending Atlanta Center
Sun 08:13:30 AM 34.8489 -83.1047 225° Southwest 425 489 24,700 -800 Descending Atlanta Center
Sun 08:14:30 AM 34.7642 -83.2144 227° Southwest 414 476 24,000 -350 Descending Atlanta Center
Sun 08:15:30 AM 34.6894 -83.3036 224° Southwest 409 471 24,000  Level Atlanta Center
Sun 08:16:30 AM 34.5897 -83.3903 216° Southwest 402 463 24,000 -300 Level Atlanta Center
Sun 08:17:30 AM 34.5006 -83.4717 217° Southwest 402 463 23,400 -1,050 Descending Atlanta Center
Sun 08:18:30 AM 34.4131 -83.5528 217° Southwest 407 468 21,900 -1,750 Descending Atlanta Center
Sun 08:19:30 AM 34.3300 -83.6264 216° Southwest 392 451 19,900 -2,000 Descending Atlanta Center
Sun 08:20:30 AM 34.2531 -83.6969 217° Southwest 367 422 17,900 -1,750 Descending Atlanta Center
Sun 08:21:30 AM 34.1800 -83.7625 217° Southwest 345 397 16,400 -1,750 Descending Atlanta Center
Sun 08:22:30 AM 34.1050 -83.8306 217° Southwest 336 387 14,400 -1,550 Descending Atlanta Center
Sun 08:23:30 AM 34.0425 -83.8883 217° Southwest 331 381 13,300 -1,200 Descending Atlanta Center
Sun 08:24:30 AM 33.9800 -83.9586 223° Southwest 319 367 12,000 -650 Descending Atlanta Center
Sun 08:25:30 AM 33.9153 -84.0314 223° Southwest 319 367 12,000  Level Atlanta Center
Sun 08:26:30 AM 33.8486 -84.0989 220° Southwest 319 367 12,000  Level Atlanta Center
Sun 08:27:30 AM 33.7711 -84.1561 212° Southwest 306 352 12,000  Level Atlanta Center
Sun 08:28:30 AM 33.7231 -84.2211 228° Southwest 257 296 12,000 -100 Level Atlanta Center
Sun 08:29:30 AM 33.7272 -84.3186 273° West 262 302 11,800 -1,263 Descending Atlanta Center
Sun 08:30:43 AM 33.7333 -84.4333 274° West 289 333 9,200 -1,986 Descending Atlanta TRACON
Sun 08:31:49 AM 33.7333 -84.5333 270° West 269 310 7,200 -1,429 Descending Atlanta TRACON
Sun 08:32:49 AM 33.7333 -84.6167 270° West 234 269 6,200 -1,158 Descending Atlanta TRACON
Sun 08:33:43 AM 33.7333 -84.6833 270° West 222 255 5,000 -600 Descending Atlanta TRACON
Sun 08:34:49 AM 33.7333 -84.7667 270° West 217 250 5,000  Level Atlanta TRACON
Sun 08:35:43 AM 33.7333 -84.8333 270° West 221 254 5,000  Level Atlanta TRACON
Sun 08:36:49 AM 33.7333 -84.9000 270° West 187 215 5,000  Level Atlanta TRACON
Sun 08:37:49 AM 33.6833 -84.9167 196° South 194 223 5,000  Level Atlanta TRACON
Sun 08:38:49 AM 33.6500 -84.8833 140° Southeast 205 236 5,000  Level Atlanta TRACON
Sun 08:39:49 AM 33.6500 -84.8167 90° East 208 239 5,000  Level Atlanta TRACON
Sun 08:40:43 AM 33.6500 -84.7500 90° East 206 237 5,000 -53 Level Atlanta TRACON
Sun 08:41:43 AM 33.6500 -84.6833 90° East 204 235 4,900 -100 Descending Atlanta TRACON

Login

Don't have an account? Register now (free) for customized features, flight alerts, and more!